Time;durP1;ratioP1;P1;durP2;ratioP2;P2;SDS_P1;SDS_P2;PMS_P1;PMS_P2;Temp;Humidity;BMP_temperature;BMP_pressure;BME280_temperature;BME280_humidity;BME280_pressure;Samples;Min_cycle;Max_cycle;Signal;HPM_P1;HPM_P2
2021/10/11 00:00:25;;;;;;;49.10;23.45;;;;;;;0.28;68.61;101079.12;2053727;85;21058;-81
2021/10/11 00:03:27;;;;;;;47.90;23.32;;;;;;;0.21;68.46;101083.81;2048836;85;20995;-78
2021/10/11 00:06:28;;;;;;;53.28;24.90;;;;;;;0.20;68.62;101083.91;2050551;85;21516;-80
2021/10/11 00:09:30;;;;;;;51.58;23.42;;;;;;;0.19;69.09;101095.25;2051507;85;21054;-82
2021/10/11 00:12:31;;;;;;;58.92;24.63;;;;;;;0.21;69.16;101096.03;2048917;85;21013;-81
2021/10/11 00:15:33;;;;;;;53.98;26.52;;;;;;;0.20;69.17;101092.58;2046915;85;21062;-80
2021/10/11 00:18:34;;;;;;;55.20;25.55;;;;;;;0.20;69.22;101095.19;2053055;85;21010;-81
2021/10/11 00:21:35;;;;;;;51.37;25.32;;;;;;;0.18;69.03;101085.28;2048871;85;20997;-79
2021/10/11 00:24:37;;;;;;;56.23;25.23;;;;;;;0.15;69.07;101078.91;2051661;85;21000;-79
2021/10/11 00:27:39;;;;;;;55.35;22.67;;;;;;;0.12;69.20;101087.36;2046859;85;21038;-81
2021/10/11 00:30:40;;;;;;;57.05;25.17;;;;;;;0.10;69.11;101086.58;2051075;85;21077;-79
2021/10/11 00:33:42;;;;;;;55.48;24.23;;;;;;;0.07;69.26;101082.83;2057799;85;20997;-79
2021/10/11 00:36:43;;;;;;;54.90;24.50;;;;;;;0.07;69.28;101065.86;2055407;85;21021;-81
2021/10/11 00:39:45;;;;;;;69.10;30.77;;;;;;;0.08;69.16;101068.84;2049836;85;21599;-80
2021/10/11 00:42:47;;;;;;;56.73;26.25;;;;;;;0.07;69.62;101058.88;2050800;85;21607;-79
2021/10/11 00:45:48;;;;;;;65.95;28.47;;;;;;;0.02;69.33;101060.02;2043590;85;21137;-79
2021/10/11 00:48:50;;;;;;;61.08;26.45;;;;;;;-0.04;69.34;101067.23;2055101;85;21097;-80
2021/10/11 00:51:51;;;;;;;58.35;27.45;;;;;;;-0.08;69.42;101062.25;2052159;85;21482;-80
2021/10/11 00:54:54;;;;;;;55.28;26.68;;;;;;;-0.16;69.18;101046.97;2054095;85;21104;-79
2021/10/11 00:57:55;;;;;;;61.85;27.85;;;;;;;-0.18;69.14;101051.41;2047056;85;21073;-81
2021/10/11 01:00:57;;;;;;;61.30;26.57;;;;;;;-0.25;69.37;101051.34;2049834;85;21014;-79
2021/10/11 01:03:59;;;;;;;56.08;27.62;;;;;;;-0.31;69.36;101046.39;2048516;85;21577;-79
2021/10/11 01:07:00;;;;;;;65.10;27.42;;;;;;;-0.38;69.47;101046.33;2049397;85;21021;-79
2021/10/11 01:10:03;;;;;;;54.42;26.50;;;;;;;-0.42;69.65;101044.77;2048686;85;21009;-80
2021/10/11 01:13:05;;;;;;;54.63;26.15;;;;;;;-0.46;69.49;101041.00;2048312;85;21001;-80
2021/10/11 01:16:07;;;;;;;56.05;27.60;;;;;;;-0.56;69.33;101041.55;2047803;85;21575;-79
2021/10/11 01:19:09;;;;;;;61.83;28.92;;;;;;;-0.60;69.68;101038.67;2049951;85;21094;-80
2021/10/11 01:22:10;;;;;;;74.97;33.18;;;;;;;-0.64;70.05;101037.98;2045559;85;21053;-79
2021/10/11 01:25:15;;;;;;;60.75;28.80;;;;;;;-0.72;70.06;101029.22;2049579;85;21022;-79
2021/10/11 01:28:16;;;;;;;57.73;25.00;;;;;;;-0.78;70.35;101026.06;2053350;85;21541;-79
2021/10/11 01:31:18;;;;;;;62.40;28.20;;;;;;;-0.78;70.00;101019.55;2050038;85;21773;-80
2021/10/11 01:34:19;;;;;;;58.83;27.27;;;;;;;-0.92;70.35;101010.61;2049305;85;21088;-79
2021/10/11 01:37:21;;;;;;;64.75;29.12;;;;;;;-1.01;70.46;100997.18;2053101;85;21012;-80
2021/10/11 01:40:23;;;;;;;65.28;28.77;;;;;;;-1.08;70.75;100990.09;2048106;85;21032;-79
2021/10/11 01:43:24;;;;;;;66.60;29.85;;;;;;;-1.11;70.70;101000.66;2052379;85;21024;-78
2021/10/11 01:46:26;;;;;;;58.87;26.85;;;;;;;-1.09;70.88;101003.20;2056642;85;21463;-80
2021/10/11 01:49:28;;;;;;;55.63;26.50;;;;;;;-1.05;70.97;101006.03;2054302;85;21018;-80
2021/10/11 01:52:29;;;;;;;61.25;26.30;;;;;;;-1.04;71.04;101006.41;2054190;85;20988;-79
2021/10/11 01:55:30;;;;;;;51.48;25.70;;;;;;;-1.05;70.47;101000.36;2046549;85;21044;-79
2021/10/11 01:58:32;;;;;;;66.00;30.62;;;;;;;-1.05;70.74;100993.85;2046580;85;21069;-79
2021/10/11 02:01:34;;;;;;;62.15;27.95;;;;;;;-1.01;71.18;100988.91;2049216;85;21539;-80
2021/10/11 02:04:35;;;;;;;69.32;30.60;;;;;;;-1.02;70.56;100990.27;2053764;85;21006;-81
2021/10/11 02:07:37;;;;;;;69.87;30.68;;;;;;;-1.07;70.84;100987.02;2050990;85;21073;-79
2021/10/11 02:10:38;;;;;;;63.10;27.35;;;;;;;-1.07;70.79;100983.98;2050377;85;20977;-81
2021/10/11 02:13:40;;;;;;;63.75;29.20;;;;;;;-1.06;70.58;100983.52;2052519;85;21077;-80
2021/10/11 02:16:41;;;;;;;57.25;28.77;;;;;;;-1.08;70.76;100986.18;2052115;85;21006;-80
2021/10/11 02:19:42;;;;;;;64.12;27.30;;;;;;;-1.10;70.68;100976.28;2047915;85;21813;-80
2021/10/11 02:22:46;;;;;;;61.92;27.65;;;;;;;-1.11;70.50;100981.58;2051483;85;21045;-79
2021/10/11 02:25:47;;;;;;;54.00;24.77;;;;;;;-1.12;70.61;100978.59;2047431;85;21056;-79
2021/10/11 02:28:49;;;;;;;65.47;28.07;;;;;;;-1.12;70.39;100972.09;2055077;85;21021;-79
2021/10/11 02:31:51;;;;;;;59.48;27.73;;;;;;;-1.20;70.55;100964.62;2058481;85;21065;-80
2021/10/11 02:34:52;;;;;;;61.33;27.85;;;;;;;-1.20;70.76;100968.53;2046972;85;21561;-82
2021/10/11 02:37:54;;;;;;;65.67;29.63;;;;;;;-1.26;70.66;100962.30;2047368;85;21066;-79
2021/10/11 02:40:56;;;;;;;60.78;28.30;;;;;;;-1.29;71.01;100961.98;2051484;85;21061;-80
2021/10/11 02:43:57;;;;;;;64.12;27.45;;;;;;;-1.30;70.79;100957.67;2043314;85;20986;-81
2021/10/11 02:46:58;;;;;;;62.60;26.97;;;;;;;-1.31;70.71;100959.06;2051706;84;21097;-81
2021/10/11 02:50:00;;;;;;;56.63;27.22;;;;;;;-1.37;70.65;100945.41;2055302;85;21045;-81
2021/10/11 02:53:01;;;;;;;62.10;27.93;;;;;;;-1.36;71.06;100948.38;2052050;85;21511;-79
2021/10/11 02:56:03;;;;;;;54.90;24.55;;;;;;;-1.36;71.14;100944.94;2048888;85;21084;-81
2021/10/11 02:59:04;;;;;;;54.00;27.70;;;;;;;-1.36;70.98;100935.36;2056841;85;21078;-79
2021/10/11 03:02:06;;;;;;;60.15;27.32;;;;;;;-1.43;71.09;100932.67;2049695;85;21064;-82
2021/10/11 03:05:07;;;;;;;59.40;27.80;;;;;;;-1.43;71.35;100936.58;2052105;85;21539;-80
2021/10/11 03:08:09;;;;;;;55.03;25.27;;;;;;;-1.37;71.36;100929.78;2054559;85;21046;-80
2021/10/11 03:11:10;;;;;;;48.40;23.02;;;;;;;-1.29;71.48;100927.30;2050212;85;21060;-80
2021/10/11 03:14:12;;;;;;;54.25;23.95;;;;;;;-1.23;71.59;100918.73;2050131;85;21057;-81
2021/10/11 03:17:13;;;;;;;54.73;23.60;;;;;;;-1.15;71.29;100915.77;2056968;85;21584;-81
2021/10/11 03:20:15;;;;;;;53.00;25.25;;;;;;;-1.09;71.07;100929.80;2048932;85;21044;-80
2021/10/11 03:23:16;;;;;;;52.93;25.20;;;;;;;-1.11;70.70;100909.95;2053053;85;21086;-79
2021/10/11 03:26:19;;;;;;;60.45;25.40;;;;;;;-1.14;70.96;100916.14;2054714;85;21014;-80
2021/10/11 03:29:20;;;;;;;52.88;24.77;;;;;;;-1.15;71.02;100914.47;2053768;85;21105;-80
2021/10/11 03:32:22;;;;;;;59.03;26.05;;;;;;;-1.19;71.05;100903.80;2048541;85;21029;-80
2021/10/11 03:35:24;;;;;;;51.63;24.43;;;;;;;-1.22;71.28;100903.94;2047419;85;20978;-80
2021/10/11 03:38:25;;;;;;;55.10;23.60;;;;;;;-1.25;71.00;100901.48;2047377;85;21042;-81
2021/10/11 03:41:27;;;;;;;47.08;22.25;;;;;;;-1.28;70.98;100908.14;2051151;85;21621;-81
2021/10/11 03:44:28;;;;;;;51.75;24.43;;;;;;;-1.31;70.92;100902.62;2043106;85;21527;-79
2021/10/11 03:47:29;;;;;;;48.80;24.02;;;;;;;-1.32;70.99;100903.98;2050998;85;21052;-80
2021/10/11 03:50:31;;;;;;;49.80;23.12;;;;;;;-1.34;70.88;100900.16;2049033;85;21013;-80
2021/10/11 03:53:32;;;;;;;47.03;23.55;;;;;;;-1.32;70.74;100904.84;2055292;85;20985;-80
2021/10/11 03:56:34;;;;;;;49.05;24.10;;;;;;;-1.26;71.04;100907.63;2052022;85;21081;-80
2021/10/11 03:59:35;;;;;;;50.05;23.55;;;;;;;-1.22;71.07;100903.94;2050708;85;20973;-81
2021/10/11 04:02:37;;;;;;;51.00;23.35;;;;;;;-1.26;71.10;100915.44;2058203;85;20989;-82
2021/10/11 04:05:38;;;;;;;54.27;23.60;;;;;;;-1.28;71.05;100918.56;2049273;85;21025;-78
2021/10/11 04:08:41;;;;;;;64.20;25.20;;;;;;;-1.27;71.23;100924.14;2052450;85;21535;-79
2021/10/11 04:11:43;;;;;;;53.08;25.32;;;;;;;-1.29;71.38;100923.39;2046185;84;21095;-80
2021/10/11 04:14:44;;;;;;;55.75;26.55;;;;;;;-1.34;71.54;100929.27;2052769;85;21078;-79
2021/10/11 04:17:48;;;;;;;59.18;28.38;;;;;;;-1.43;71.80;100927.47;2049114;85;21013;-79
2021/10/11 04:20:49;;;;;;;53.90;24.87;;;;;;;-1.43;71.81;100932.67;2052225;84;21096;-81
2021/10/11 04:23:51;;;;;;;51.15;24.43;;;;;;;-1.44;71.69;100923.62;2050958;84;21590;-80
2021/10/11 04:26:52;;;;;;;57.17;26.37;;;;;;;-1.48;71.77;100911.67;2049771;84;21612;-79
2021/10/11 04:29:53;;;;;;;51.68;24.87;;;;;;;-1.58;71.95;100920.34;2045176;85;21557;-79
2021/10/11 04:32:55;;;;;;;63.65;27.70;;;;;;;-1.58;71.95;100904.72;2049381;85;21047;-78
2021/10/11 04:35:56;;;;;;;56.73;26.82;;;;;;;-1.58;72.02;100907.33;2052693;85;21001;-79
2021/10/11 04:38:57;;;;;;;53.45;25.80;;;;;;;-1.61;72.09;100904.86;2055180;85;21575;-78
2021/10/11 04:41:59;;;;;;;51.55;25.08;;;;;;;-1.61;72.14;100897.89;2049263;85;21061;-79
2021/10/11 04:45:00;;;;;;;59.58;27.67;;;;;;;-1.59;72.67;100896.53;2052685;85;21516;-79
2021/10/11 04:48:06;;;;;;;54.98;25.10;;;;;;;-1.56;72.24;100896.86;2052536;85;21840;-79
2021/10/11 04:51:08;;;;;;;48.40;23.40;;;;;;;-1.57;71.78;100897.32;2049275;85;20997;-79
2021/10/11 04:54:09;;;;;;;51.48;25.10;;;;;;;-1.60;71.54;100900.06;2055933;85;21022;-80
2021/10/11 04:57:11;;;;;;;51.85;25.12;;;;;;;-1.64;71.64;100888.09;2046510;85;21057;-79
2021/10/11 05:00:14;;;;;;;53.45;25.85;;;;;;;-1.62;71.67;100895.38;2052247;85;21021;-80
2021/10/11 05:03:15;;;;;;;54.20;25.37;;;;;;;-1.61;71.55;100887.95;2051515;85;21033;-81
2021/10/11 05:06:17;;;;;;;56.25;25.52;;;;;;;-1.59;71.74;100883.52;2048818;85;21076;-77
2021/10/11 05:09:18;;;;;;;51.73;24.87;;;;;;;-1.62;71.84;100883.67;2050087;85;21347;-77
2021/10/11 05:12:20;;;;;;;52.30;24.60;;;;;;;-1.65;71.98;100888.55;2046217;85;21044;-78
2021/10/11 05:15:22;;;;;;;55.55;25.82;;;;;;;-1.72;71.86;100872.81;2049052;85;21058;-78
2021/10/11 05:18:23;;;;;;;52.88;25.17;;;;;;;-1.77;72.17;100879.14;2050087;85;21025;-75
2021/10/11 05:21:25;;;;;;;54.38;24.47;;;;;;;-1.75;72.21;100884.67;2049157;85;21551;-76
2021/10/11 05:24:26;;;;;;;57.43;24.75;;;;;;;-1.70;72.42;100879.27;2046069;85;20974;-79
2021/10/11 05:27:28;;;;;;;57.80;26.87;;;;;;;-1.62;72.19;100881.06;2048489;85;21063;-77
2021/10/11 05:30:30;;;;;;;60.28;27.60;;;;;;;-1.45;72.33;100873.78;2040121;86;21094;-78
2021/10/11 05:33:31;;;;;;;62.98;25.65;;;;;;;-1.16;72.50;100881.51;2042266;86;21057;-76
2021/10/11 05:36:33;;;;;;;57.75;26.20;;;;;;;-0.84;72.42;100882.58;2042253;86;20983;-75
2021/10/11 05:39:34;;;;;;;53.73;25.45;;;;;;;-0.50;72.34;100873.91;2044099;86;21719;-77
2021/10/11 05:42:36;;;;;;;55.88;25.57;;;;;;;-0.20;71.96;100874.55;2039311;86;21041;-76
2021/10/11 05:45:38;;;;;;;52.75;25.82;;;;;;;0.12;71.70;100870.74;2043335;86;21571;-75
2021/10/11 05:48:39;;;;;;;56.25;28.07;;;;;;;0.41;71.64;100858.26;2043041;86;21021;-75
2021/10/11 05:51:41;;;;;;;56.18;29.90;;;;;;;0.63;71.44;100863.63;2040845;86;21078;-75
2021/10/11 05:54:42;;;;;;;51.45;24.07;;;;;;;0.94;71.25;100855.38;2045361;86;21048;-76
2021/10/11 05:57:44;;;;;;;48.98;23.45;;;;;;;1.31;71.18;100844.94;2037088;86;21041;-76
2021/10/11 06:00:45;;;;;;;48.38;24.10;;;;;;;1.63;70.89;100845.64;2041294;86;21490;-76
2021/10/11 06:03:46;;;;;;;40.67;22.42;;;;;;;1.67;70.29;100835.86;2042978;86;21041;-75
2021/10/11 06:06:48;;;;;;;43.25;21.75;;;;;;;1.53;70.00;100842.74;2042671;86;20995;-76
2021/10/11 06:09:49;;;;;;;43.52;21.50;;;;;;;1.61;70.44;100851.92;2041293;86;21548;-76
2021/10/11 06:12:51;;;;;;;43.55;22.87;;;;;;;1.98;70.72;100857.92;2039247;86;20999;-75
2021/10/11 06:15:52;;;;;;;45.03;23.73;;;;;;;2.45;70.37;100855.45;2036788;86;21064;-75
2021/10/11 06:18:54;;;;;;;47.35;23.57;;;;;;;2.89;70.30;100856.16;2041697;86;21090;-78
2021/10/11 06:21:55;;;;;;;42.25;21.93;;;;;;;3.38;69.93;100854.26;2041642;86;21080;-75
2021/10/11 06:24:57;;;;;;;51.08;26.30;;;;;;;3.76;69.19;100839.84;2044690;86;21024;-76
2021/10/11 06:27:59;;;;;;;40.48;22.27;;;;;;;4.32;69.41;100842.56;2041647;86;21081;-76
2021/10/11 06:31:00;;;;;;;50.98;24.35;;;;;;;4.70;68.38;100851.63;2041561;86;21014;-76
2021/10/11 06:34:02;;;;;;;54.25;28.35;;;;;;;4.93;67.93;100847.34;2037956;86;21011;-76
2021/10/11 06:37:04;;;;;;;53.17;28.55;;;;;;;5.37;67.63;100836.13;2043280;86;21026;-77
2021/10/11 06:40:07;;;;;;;54.50;28.55;;;;;;;5.79;67.24;100844.83;2044373;86;21051;-76
2021/10/11 06:43:09;;;;;;;52.10;28.35;;;;;;;6.12;66.60;100834.81;2043885;86;21025;-79
2021/10/11 06:46:10;;;;;;;51.77;27.42;;;;;;;6.46;66.34;100841.38;2039323;86;21257;-78
2021/10/11 06:49:12;;;;;;;50.98;24.43;;;;;;;6.94;65.69;100837.88;2045997;86;21009;-78
2021/10/11 06:52:14;;;;;;;50.05;26.48;;;;;;;7.30;65.43;100840.25;2041974;86;20994;-79
2021/10/11 06:55:16;;;;;;;56.08;27.87;;;;;;;7.69;65.54;100842.66;2041811;86;21118;-81
2021/10/11 06:58:17;;;;;;;49.93;27.22;;;;;;;8.05;64.93;100824.59;2041436;86;20962;-79
2021/10/11 07:01:20;;;;;;;53.65;27.60;;;;;;;8.24;64.18;100826.48;2042716;86;21069;-78
2021/10/11 07:04:22;;;;;;;44.05;25.92;;;;;;;8.45;63.93;100832.57;2036723;86;21050;-76
2021/10/11 07:07:28;;;;;;;48.58;26.00;;;;;;;8.70;63.76;100834.34;2041670;86;21058;-75
2021/10/11 07:10:28;;;;;;;48.23;25.52;;;;;;;9.07;63.41;100835.84;2041069;86;21006;-76
2021/10/11 07:13:29;;;;;;;54.88;26.25;;;;;;;9.29;62.80;100838.70;2044384;86;21073;-77
2021/10/11 07:16:31;;;;;;;45.85;25.90;;;;;;;9.70;62.98;100837.98;2042346;86;20947;-78
2021/10/11 07:19:33;;;;;;;49.48;25.57;;;;;;;10.02;61.93;100843.39;2041571;86;21032;-77
2021/10/11 07:22:36;;;;;;;48.42;27.10;;;;;;;10.18;61.49;100834.82;2040144;86;20965;-76
2021/10/11 07:25:37;;;;;;;47.38;25.30;;;;;;;10.47;61.46;100829.38;2026651;86;21093;-77
2021/10/11 07:28:39;;;;;;;47.33;26.42;;;;;;;10.79;61.08;100834.72;2048504;84;21659;-74
2021/10/11 07:31:40;;;;;;;44.00;25.23;;;;;;;11.02;60.17;100821.33;2054850;85;21057;-75
2021/10/11 07:34:42;;;;;;;44.88;26.10;;;;;;;11.12;59.98;100821.23;2049560;85;21064;-77
2021/10/11 07:37:43;;;;;;;43.38;25.25;;;;;;;11.16;59.59;100825.27;2052862;85;21037;-76
2021/10/11 07:40:46;;;;;;;46.63;24.85;;;;;;;11.39;59.66;100816.30;2057133;85;21594;-76
2021/10/11 07:43:47;;;;;;;41.80;24.00;;;;;;;11.49;59.07;100813.06;2055166;85;21105;-77
2021/10/11 07:46:52;;;;;;;44.38;24.95;;;;;;;11.60;58.53;100810.63;2051571;85;21038;-75
2021/10/11 07:49:52;;;;;;;42.90;24.92;;;;;;;11.76;58.38;100807.23;2055518;84;21017;-75
2021/10/11 07:52:53;;;;;;;47.25;24.55;;;;;;;11.91;57.71;100807.51;2051412;85;21077;-74
2021/10/11 07:55:55;;;;;;;44.35;24.77;;;;;;;12.05;57.75;100811.76;2055053;85;21037;-75
2021/10/11 07:58:56;;;;;;;43.38;25.10;;;;;;;12.16;57.18;100807.95;2053036;85;21001;-77
2021/10/11 08:01:59;;;;;;;44.38;25.62;;;;;;;12.34;57.35;100805.21;2051659;85;21038;-78
2021/10/11 08:05:00;;;;;;;49.27;24.02;;;;;;;12.71;56.67;100784.83;2053035;85;21486;-79
2021/10/11 08:08:01;;;;;;;39.13;24.12;;;;;;;12.71;56.67;100784.83;2056143;85;20962;-77
2021/10/11 08:11:04;;;;;;;42.40;23.60;;;;;;;13.05;56.42;100807.83;2052700;85;20999;-77
2021/10/11 08:14:05;;;;;;;40.20;23.45;;;;;;;13.23;55.94;100804.52;2056073;85;21512;-76
2021/10/11 08:17:07;;;;;;;45.48;24.67;;;;;;;13.45;55.66;100803.00;2055385;85;21085;-79
2021/10/11 08:20:29;;;;;;;43.68;25.90;;;;;;;13.69;55.31;100803.97;2054971;85;21851;-75
2021/10/11 08:23:35;;;;;;;45.43;25.37;;;;;;;13.95;55.15;100798.39;1990519;87;21088;-70
2021/10/11 08:26:36;;;;;;;40.88;23.85;;;;;;;14.27;54.63;100797.92;1990035;88;21064;-63
2021/10/11 08:29:38;;;;;;;38.40;22.27;;;;;;;14.48;53.66;100798.66;1992997;88;21128;-85
2021/10/11 08:32:39;;;;;;;45.05;24.40;;;;;;;14.57;53.74;100797.12;1990665;87;21063;-85
2021/10/11 08:35:41;;;;;;;37.67;22.75;;;;;;;14.72;53.21;100802.52;1989887;88;21693;-85
2021/10/11 08:38:43;;;;;;;40.83;22.95;;;;;;;14.84;52.65;100798.11;1989763;88;21054;-86
2021/10/11 08:41:47;;;;;;;37.28;21.97;;;;;;;14.96;52.75;100799.37;1991585;87;21603;-85
2021/10/11 08:44:49;;;;;;;39.42;22.75;;;;;;;15.02;52.07;100797.31;1992937;86;21037;-85
2021/10/11 08:47:50;;;;;;;38.08;22.82;;;;;;;14.99;51.72;100795.83;1993841;86;21777;-84
2021/10/11 08:50:52;;;;;;;39.05;22.45;;;;;;;15.14;50.70;100791.86;1999398;88;21573;-85
2021/10/11 08:53:54;;;;;;;37.00;22.10;;;;;;;15.00;50.74;100785.97;1995447;88;21339;-86
2021/10/11 08:56:55;;;;;;;36.08;20.30;;;;;;;14.77;50.78;100791.31;1991009;86;21039;-85
2021/10/11 09:00:16;;;;;;;30.80;19.30;;;;;;;14.94;50.36;100786.69;1991711;87;21048;-84
2021/10/11 09:03:21;;;;;;;37.30;21.27;;;;;;;14.75;49.93;100787.50;1955937;88;21554;-84
2021/10/11 09:06:23;;;;;;;39.53;20.37;;;;;;;14.36;49.60;100786.22;1967671;87;21147;-84
2021/10/11 09:09:25;;;;;;;35.50;20.08;;;;;;;14.18;50.18;100794.45;1993959;88;21159;-84
2021/10/11 09:12:30;;;;;;;29.20;17.67;;;;;;;14.30;50.33;100796.23;1995226;87;21012;-84
2021/10/11 09:15:32;;;;;;;30.02;18.17;;;;;;;14.60;49.88;100792.44;1990820;88;22271;-81
2021/10/11 09:18:34;;;;;;;34.43;19.05;;;;;;;14.91;49.34;100785.71;1993410;87;21112;-79
2021/10/11 09:21:37;;;;;;;30.80;18.50;;;;;;;15.12;49.06;100775.19;1999340;87;21087;-85
2021/10/11 09:24:38;;;;;;;33.73;19.32;;;;;;;15.24;48.65;100771.06;2026181;87;21037;-84
2021/10/11 09:27:55;;;;;;;34.80;19.12;;;;;;;15.18;48.65;100778.47;2025672;87;21010;-84
2021/10/11 09:30:58;;;;;;;31.55;17.12;;;;;;;14.88;47.41;100773.53;2029571;87;21040;-84
2021/10/11 09:34:00;;;;;;;35.70;18.57;;;;;;;14.59;47.98;100774.77;2024845;87;20958;-84
2021/10/11 09:37:06;;;;;;;32.75;19.50;;;;;;;14.35;48.25;100766.67;2024646;87;20985;-85
2021/10/11 09:40:09;;;;;;;37.17;19.65;;;;;;;14.13;48.37;100760.30;2024617;87;22419;-84
2021/10/11 09:43:14;;;;;;;33.85;19.02;;;;;;;14.14;48.61;100751.79;2026162;87;20957;-84
2021/10/11 09:46:18;;;;;;;29.85;17.62;;;;;;;14.24;48.91;100747.55;2022945;87;21036;-85
2021/10/11 09:49:19;;;;;;;31.93;17.30;;;;;;;14.44;48.32;100750.61;2024915;87;21599;-83
2021/10/11 09:52:21;;;;;;;30.43;17.65;;;;;;;14.29;47.72;100741.19;2024568;87;21060;-83
2021/10/11 09:55:22;;;;;;;29.98;17.05;;;;;;;14.07;48.07;100732.13;2000979;87;21036;-83
2021/10/11 09:58:24;;;;;;;36.80;18.27;;;;;;;14.03;48.14;100732.98;2028635;87;22084;-83
2021/10/11 10:01:27;;;;;;;33.45;17.37;;;;;;;14.04;47.89;100732.48;2025179;87;21501;-83
2021/10/11 10:04:36;;;;;;;34.05;18.07;;;;;;;14.07;48.01;100729.46;2000161;87;21562;-83
2021/10/11 10:07:42;;;;;;;31.10;17.57;;;;;;;14.20;48.21;100721.73;2023210;87;21099;-84
2021/10/11 10:10:48;;;;;;;26.40;16.25;;;;;;;14.44;47.56;100713.23;2026466;87;21016;-83
2021/10/11 10:13:49;;;;;;;32.58;18.40;;;;;;;14.46;47.24;100716.05;2002156;87;21004;-84
2021/10/11 10:16:54;;;;;;;30.10;17.17;;;;;;;14.48;47.69;100711.87;2025471;87;21115;-83
2021/10/11 10:20:08;;;;;;;34.20;16.05;;;;;;;14.46;47.24;100702.70;2024519;87;21059;-84
2021/10/11 10:23:10;;;;;;;28.55;16.87;;;;;;;14.38;47.71;100699.26;2018963;86;21108;-84
2021/10/11 10:26:14;;;;;;;29.82;17.15;;;;;;;14.35;47.78;100691.92;2020416;87;21025;-86
2021/10/11 10:29:21;;;;;;;31.12;16.70;;;;;;;14.52;47.83;100698.01;2016492;87;21057;-83
2021/10/11 10:32:25;;;;;;;32.80;17.35;;;;;;;14.54;47.70;100686.66;2019909;87;21017;-87
2021/10/11 10:35:31;;;;;;;29.72;16.48;;;;;;;14.54;47.46;100679.98;2017575;87;21021;-83
2021/10/11 10:38:33;;;;;;;26.12;15.45;;;;;;;14.54;46.76;100682.65;2015464;87;21041;-83
2021/10/11 10:41:37;;;;;;;31.95;17.50;;;;;;;14.69;47.18;100680.02;2020969;87;21563;-84
2021/10/11 10:44:45;;;;;;;27.85;17.80;;;;;;;14.93;47.38;100666.95;2018077;87;21036;-84
2021/10/11 10:47:50;;;;;;;36.63;17.35;;;;;;;15.10;47.20;100654.27;2018224;87;21018;-84
2021/10/11 10:50:55;;;;;;;34.35;17.12;;;;;;;15.36;47.15;100652.97;2016721;87;21056;-83
2021/10/11 10:53:58;;;;;;;30.23;17.98;;;;;;;15.48;46.47;100654.16;2016636;87;21553;-83
2021/10/11 10:57:00;;;;;;;31.90;17.60;;;;;;;15.37;46.44;100651.95;2022813;87;21096;-84
2021/10/11 11:00:18;;;;;;;32.25;17.20;;;;;;;15.22;46.59;100647.44;2024503;87;21439;-84
2021/10/11 11:03:19;;;;;;;28.57;16.32;;;;;;;15.15;46.30;100646.53;2017758;87;21037;-83
2021/10/11 11:06:32;;;;;;;34.20;16.02;;;;;;;14.99;45.91;100648.03;2021601;87;21433;-85
2021/10/11 11:09:45;;;;;;;34.55;16.73;;;;;;;14.78;46.09;100640.70;2022199;87;21072;-81
2021/10/11 11:12:57;;;;;;;36.23;17.30;;;;;;;14.65;46.31;100635.17;2023228;87;21782;-82
2021/10/11 11:15:59;;;;;;;31.45;15.85;;;;;;;14.66;46.49;100626.96;2020639;87;21013;-83
2021/10/11 11:19:01;;;;;;;27.75;14.25;;;;;;;14.65;46.64;100629.32;2020076;87;21422;-84
2021/10/11 11:22:02;;;;;;;29.20;14.28;;;;;;;14.63;46.46;100631.33;2018414;87;21040;-86
2021/10/11 11:25:09;;;;;;;24.55;14.53;;;;;;;14.61;46.56;100619.98;2020571;87;21068;-82
2021/10/11 11:28:18;;;;;;;26.05;14.03;;;;;;;14.59;46.57;100622.03;2019351;86;21028;-83
2021/10/11 11:31:20;;;;;;;23.77;13.90;;;;;;;14.52;46.51;100613.07;2023645;86;21032;-83
2021/10/11 11:34:21;;;;;;;24.87;14.85;;;;;;;14.47;46.69;100624.28;2022611;87;21104;-84
2021/10/11 11:37:23;;;;;;;28.23;14.15;;;;;;;14.52;47.00;100621.08;2022911;86;21109;-83
2021/10/11 11:40:30;;;;;;;21.73;12.58;;;;;;;14.59;46.58;100616.70;2025302;86;21560;-83
2021/10/11 11:43:39;;;;;;;19.67;12.40;;;;;;;14.59;46.84;100622.03;2021943;87;21072;-82
2021/10/11 11:46:40;;;;;;;21.33;10.60;;;;;;;14.48;46.82;100618.43;2020049;87;22296;-83
2021/10/11 11:49:42;;;;;;;20.77;10.38;;;;;;;14.47;46.35;100618.94;2026803;87;21064;-82
2021/10/11 11:52:46;;;;;;;23.18;10.63;;;;;;;14.32;46.76;100622.88;2026235;87;21076;-82
2021/10/11 11:55:50;;;;;;;19.60;10.48;;;;;;;14.21;46.80;100613.13;2018336;85;22073;-82
2021/10/11 11:58:52;;;;;;;16.02;9.33;;;;;;;14.13;46.70;100616.68;2020472;86;20984;-84
2021/10/11 12:02:00;;;;;;;13.93;9.68;;;;;;;14.04;47.32;100617.75;2017664;87;21091;-83
2021/10/11 12:05:02;;;;;;;18.00;9.75;;;;;;;14.01;47.31;100607.44;2025784;87;21071;-83
2021/10/11 12:08:04;;;;;;;12.80;8.65;;;;;;;13.90;47.31;100610.83;2021233;87;21535;-83
2021/10/11 12:11:07;;;;;;;22.52;9.78;;;;;;;13.88;47.60;100607.53;2019623;87;21128;-82
2021/10/11 12:14:09;;;;;;;12.15;8.65;;;;;;;13.79;47.12;100603.23;2017546;86;21056;-82
2021/10/11 12:17:10;;;;;;;13.13;8.93;;;;;;;13.64;47.50;100596.99;2022749;87;21024;-82
2021/10/11 12:20:12;;;;;;;16.90;8.73;;;;;;;13.60;47.64;100608.52;2024769;87;21033;-82
2021/10/11 12:23:15;;;;;;;16.10;9.40;;;;;;;13.53;47.66;100599.55;2025332;87;21028;-82
2021/10/11 12:26:18;;;;;;;14.07;8.00;;;;;;;13.46;48.03;100606.59;2024046;87;21082;-83
2021/10/11 12:29:21;;;;;;;14.58;8.70;;;;;;;13.42;48.04;100595.42;2026680;87;21068;-86
2021/10/11 12:32:31;;;;;;;13.00;8.25;;;;;;;13.42;48.23;100601.26;2024482;87;21079;-82
2021/10/11 12:35:32;;;;;;;13.25;8.60;;;;;;;13.38;48.13;100592.79;2024704;87;21067;-82
2021/10/11 12:38:38;;;;;;;13.50;8.28;;;;;;;13.35;48.39;100589.14;2025195;87;21686;-82
2021/10/11 12:41:49;;;;;;;15.15;8.98;;;;;;;13.33;48.54;100587.14;2026172;87;21546;-82
2021/10/11 12:44:56;;;;;;;14.07;7.92;;;;;;;13.32;48.32;100591.30;2024416;87;20993;-82
2021/10/11 12:48:04;;;;;;;18.57;8.43;;;;;;;13.26;48.45;100580.83;2026793;87;21414;-82
2021/10/11 12:51:06;;;;;;;13.32;7.47;;;;;;;13.22;48.56;100586.16;2022981;87;21020;-86
2021/10/11 12:54:11;;;;;;;15.48;8.75;;;;;;;13.21;48.67;100587.17;2025583;87;20973;-87
2021/10/11 12:57:12;;;;;;;14.35;8.55;;;;;;;13.19;48.83;100589.99;2023434;87;21058;-83
2021/10/11 13:00:20;;;;;;;18.25;9.05;;;;;;;13.15;48.77;100589.16;2025176;87;21602;-82
2021/10/11 13:03:25;;;;;;;15.18;9.13;;;;;;;13.09;49.09;100591.19;2024678;87;21035;-84
2021/10/11 13:06:33;;;;;;;14.87;9.05;;;;;;;13.06;49.14;100580.38;2022959;87;21031;-83
2021/10/11 13:09:34;;;;;;;16.40;8.68;;;;;;;12.99;49.12;100570.09;2025814;87;20980;-82
2021/10/11 13:12:36;;;;;;;15.60;9.03;;;;;;;12.92;49.49;100563.77;2023136;87;21064;-83
2021/10/11 13:15:38;;;;;;;15.50;9.55;;;;;;;12.88;49.70;100569.95;2024315;87;21010;-83
2021/10/11 13:18:39;;;;;;;13.03;9.05;;;;;;;12.87;49.91;100564.30;2023535;87;21016;-82
2021/10/11 13:21:43;;;;;;;21.33;10.18;;;;;;;12.88;50.13;100565.95;2023684;87;20993;-82
2021/10/11 13:24:44;;;;;;;17.85;11.65;;;;;;;12.88;50.43;100555.81;2022548;87;21079;-82
2021/10/11 13:27:46;;;;;;;16.40;11.38;;;;;;;12.86;50.60;100563.95;2024869;87;20990;-90
2021/10/11 14:30:12;;;;;;;23.67;12.98;;;;;;;12.64;52.92;100532.72;2008473;87;21064;-84
2021/10/11 14:33:26;;;;;;;25.17;13.10;;;;;;;12.50;53.01;100528.45;2013359;87;21069;-86
2021/10/11 16:05:32;;;;;;;29.67;20.35;;;;;;;11.04;59.63;100499.84;2024145;87;21071;-82
2021/10/11 16:08:34;;;;;;;30.50;19.55;;;;;;;11.03;59.88;100498.19;2021935;86;20981;-83
2021/10/11 16:11:36;;;;;;;30.27;20.45;;;;;;;11.03;60.25;100501.67;2022790;86;21586;-86
2021/10/11 16:14:37;;;;;;;34.63;22.15;;;;;;;10.98;60.27;100496.86;2021675;86;21504;-83
2021/10/11 16:17:39;;;;;;;37.58;22.58;;;;;;;10.93;60.88;100494.34;2022794;87;21071;-83
2021/10/11 16:20:41;;;;;;;37.88;23.60;;;;;;;10.86;60.95;100500.77;2023923;86;21087;-85